sensor_id;sensor_type;location;lat;lon;timestamp;P1;durP1;ratioP1;P2;durP2;ratioP2
78848;SDS011;68197;41.864;21.942;2024-01-07T00:00:42;8.48;;;4.38;;
78848;SDS011;68197;41.864;21.942;2024-01-07T00:03:08;9.25;;;4.25;;
78848;SDS011;68197;41.864;21.942;2024-01-07T00:05:35;6.07;;;3.00;;
78848;SDS011;68197;41.864;21.942;2024-01-07T00:08:02;9.50;;;4.03;;
78848;SDS011;68197;41.864;21.942;2024-01-07T00:10:28;12.32;;;4.63;;
78848;SDS011;68197;41.864;21.942;2024-01-07T00:12:55;8.98;;;4.60;;
78848;SDS011;68197;41.864;21.942;2024-01-07T00:15:21;8.98;;;3.35;;
78848;SDS011;68197;41.864;21.942;2024-01-07T00:17:47;9.98;;;3.88;;
78848;SDS011;68197;41.864;21.942;2024-01-07T00:20:13;7.65;;;3.63;;
78848;SDS011;68197;41.864;21.942;2024-01-07T00:22:39;9.13;;;4.93;;
78848;SDS011;68197;41.864;21.942;2024-01-07T00:25:05;7.05;;;4.63;;
78848;SDS011;68197;41.864;21.942;2024-01-07T00:27:31;6.80;;;5.50;;
78848;SDS011;68197;41.864;21.942;2024-01-07T00:29:57;9.18;;;4.93;;
78848;SDS011;68197;41.864;21.942;2024-01-07T00:32:23;7.30;;;5.03;;
78848;SDS011;68197;41.864;21.942;2024-01-07T00:34:50;10.15;;;6.53;;
78848;SDS011;68197;41.864;21.942;2024-01-07T00:37:16;14.50;;;8.93;;
78848;SDS011;68197;41.864;21.942;2024-01-07T00:39:43;9.35;;;6.07;;
78848;SDS011;68197;41.864;21.942;2024-01-07T00:42:10;9.48;;;5.38;;
78848;SDS011;68197;41.864;21.942;2024-01-07T00:44:37;6.53;;;4.22;;
78848;SDS011;68197;41.864;21.942;2024-01-07T00:47:03;8.00;;;4.80;;
78848;SDS011;68197;41.864;21.942;2024-01-07T00:49:29;5.60;;;3.00;;
78848;SDS011;68197;41.864;21.942;2024-01-07T00:51:56;6.25;;;4.30;;
78848;SDS011;68197;41.864;21.942;2024-01-07T00:54:22;4.63;;;1.85;;
78848;SDS011;68197;41.864;21.942;2024-01-07T00:56:48;4.68;;;1.48;;
78848;SDS011;68197;41.864;21.942;2024-01-07T00:59:15;4.25;;;2.10;;
78848;SDS011;68197;41.864;21.942;2024-01-07T01:01:41;4.22;;;1.95;;
78848;SDS011;68197;41.864;21.942;2024-01-07T01:04:07;3.22;;;1.70;;
78848;SDS011;68197;41.864;21.942;2024-01-07T01:06:33;1.85;;;1.00;;
78848;SDS011;68197;41.864;21.942;2024-01-07T01:08:59;3.38;;;1.60;;
78848;SDS011;68197;41.864;21.942;2024-01-07T01:11:25;2.88;;;1.05;;
78848;SDS011;68197;41.864;21.942;2024-01-07T01:13:51;2.45;;;1.20;;
78848;SDS011;68197;41.864;21.942;2024-01-07T01:16:18;1.70;;;0.80;;
78848;SDS011;68197;41.864;21.942;2024-01-07T01:18:44;2.65;;;0.70;;
78848;SDS011;68197;41.864;21.942;2024-01-07T01:21:10;3.90;;;1.10;;
78848;SDS011;68197;41.864;21.942;2024-01-07T01:23:37;2.38;;;0.82;;
78848;SDS011;68197;41.864;21.942;2024-01-07T01:26:03;1.85;;;0.35;;
78848;SDS011;68197;41.864;21.942;2024-01-07T01:28:29;5.28;;;3.33;;
78848;SDS011;68197;41.864;21.942;2024-01-07T01:30:55;3.38;;;1.23;;
78848;SDS011;68197;41.864;21.942;2024-01-07T01:33:22;10.55;;;5.65;;
78848;SDS011;68197;41.864;21.942;2024-01-07T01:35:48;7.72;;;5.25;;
78848;SDS011;68197;41.864;21.942;2024-01-07T01:38:14;6.60;;;2.83;;
78848;SDS011;68197;41.864;21.942;2024-01-07T01:40:40;3.85;;;1.60;;
78848;SDS011;68197;41.864;21.942;2024-01-07T01:43:06;5.40;;;2.05;;
78848;SDS011;68197;41.864;21.942;2024-01-07T01:45:32;5.82;;;2.35;;
78848;SDS011;68197;41.864;21.942;2024-01-07T01:47:58;1.95;;;0.75;;
78848;SDS011;68197;41.864;21.942;2024-01-07T01:50:25;2.35;;;0.63;;
78848;SDS011;68197;41.864;21.942;2024-01-07T01:52:52;2.15;;;0.95;;
78848;SDS011;68197;41.864;21.942;2024-01-07T01:55:19;4.60;;;1.10;;
78848;SDS011;68197;41.864;21.942;2024-01-07T01:57:45;2.72;;;0.50;;
78848;SDS011;68197;41.864;21.942;2024-01-07T02:00:12;2.00;;;0.57;;
78848;SDS011;68197;41.864;21.942;2024-01-07T02:02:41;3.00;;;0.90;;
78848;SDS011;68197;41.864;21.942;2024-01-07T02:05:07;2.25;;;0.60;;
78848;SDS011;68197;41.864;21.942;2024-01-07T02:07:33;2.10;;;0.80;;
78848;SDS011;68197;41.864;21.942;2024-01-07T02:10:00;2.17;;;0.93;;
78848;SDS011;68197;41.864;21.942;2024-01-07T02:12:26;6.88;;;2.92;;
78848;SDS011;68197;41.864;21.942;2024-01-07T02:14:52;3.88;;;1.83;;
78848;SDS011;68197;41.864;21.942;2024-01-07T02:17:18;6.65;;;3.47;;
78848;SDS011;68197;41.864;21.942;2024-01-07T02:19:45;5.28;;;3.33;;
78848;SDS011;68197;41.864;21.942;2024-01-07T02:22:11;4.88;;;2.90;;
78848;SDS011;68197;41.864;21.942;2024-01-07T02:24:37;5.55;;;3.13;;
78848;SDS011;68197;41.864;21.942;2024-01-07T02:27:04;6.38;;;4.38;;
78848;SDS011;68197;41.864;21.942;2024-01-07T02:29:30;1.35;;;0.45;;
78848;SDS011;68197;41.864;21.942;2024-01-07T02:31:56;5.22;;;2.47;;
78848;SDS011;68197;41.864;21.942;2024-01-07T02:34:22;6.38;;;2.90;;
78848;SDS011;68197;41.864;21.942;2024-01-07T02:36:48;7.45;;;5.28;;
78848;SDS011;68197;41.864;21.942;2024-01-07T02:39:14;7.03;;;3.42;;
78848;SDS011;68197;41.864;21.942;2024-01-07T02:41:40;2.47;;;0.95;;
78848;SDS011;68197;41.864;21.942;2024-01-07T02:44:06;3.47;;;1.10;;
78848;SDS011;68197;41.864;21.942;2024-01-07T02:46:33;4.22;;;1.38;;
78848;SDS011;68197;41.864;21.942;2024-01-07T02:48:59;8.85;;;5.78;;
78848;SDS011;68197;41.864;21.942;2024-01-07T02:51:25;10.88;;;6.32;;
78848;SDS011;68197;41.864;21.942;2024-01-07T02:53:51;9.60;;;5.32;;
78848;SDS011;68197;41.864;21.942;2024-01-07T02:56:17;4.90;;;2.75;;
78848;SDS011;68197;41.864;21.942;2024-01-07T02:58:43;7.38;;;4.22;;
78848;SDS011;68197;41.864;21.942;2024-01-07T03:01:09;8.63;;;2.97;;
78848;SDS011;68197;41.864;21.942;2024-01-07T03:03:36;4.25;;;2.45;;
78848;SDS011;68197;41.864;21.942;2024-01-07T03:06:02;3.45;;;1.50;;
78848;SDS011;68197;41.864;21.942;2024-01-07T03:08:28;2.53;;;1.45;;
78848;SDS011;68197;41.864;21.942;2024-01-07T03:10:55;7.72;;;5.10;;
78848;SDS011;68197;41.864;21.942;2024-01-07T03:13:21;8.70;;;5.47;;
78848;SDS011;68197;41.864;21.942;2024-01-07T03:15:47;7.75;;;3.63;;
78848;SDS011;68197;41.864;21.942;2024-01-07T03:18:13;5.95;;;2.42;;
78848;SDS011;68197;41.864;21.942;2024-01-07T03:20:39;7.53;;;4.25;;
78848;SDS011;68197;41.864;21.942;2024-01-07T03:23:05;5.18;;;2.83;;
78848;SDS011;68197;41.864;21.942;2024-01-07T03:25:32;3.75;;;1.75;;
78848;SDS011;68197;41.864;21.942;2024-01-07T03:27:58;5.13;;;4.13;;
78848;SDS011;68197;41.864;21.942;2024-01-07T03:30:24;6.55;;;3.35;;
78848;SDS011;68197;41.864;21.942;2024-01-07T03:32:50;7.35;;;3.72;;
78848;SDS011;68197;41.864;21.942;2024-01-07T03:35:16;6.18;;;2.10;;
78848;SDS011;68197;41.864;21.942;2024-01-07T03:37:42;4.20;;;1.65;;
78848;SDS011;68197;41.864;21.942;2024-01-07T03:40:09;3.17;;;1.98;;
78848;SDS011;68197;41.864;21.942;2024-01-07T03:42:36;2.45;;;1.25;;
78848;SDS011;68197;41.864;21.942;2024-01-07T03:45:03;1.40;;;0.90;;
78848;SDS011;68197;41.864;21.942;2024-01-07T03:47:30;1.63;;;0.30;;
78848;SDS011;68197;41.864;21.942;2024-01-07T03:49:56;0.90;;;0.40;;
78848;SDS011;68197;41.864;21.942;2024-01-07T03:52:22;0.98;;;0.68;;
78848;SDS011;68197;41.864;21.942;2024-01-07T03:54:49;4.30;;;1.75;;
78848;SDS011;68197;41.864;21.942;2024-01-07T03:57:15;2.80;;;1.65;;
78848;SDS011;68197;41.864;21.942;2024-01-07T03:59:41;5.97;;;2.80;;
78848;SDS011;68197;41.864;21.942;2024-01-07T04:02:07;4.57;;;2.05;;
78848;SDS011;68197;41.864;21.942;2024-01-07T04:04:33;4.47;;;1.75;;
78848;SDS011;68197;41.864;21.942;2024-01-07T04:06:59;3.20;;;0.73;;
78848;SDS011;68197;41.864;21.942;2024-01-07T04:09:25;1.58;;;0.63;;
78848;SDS011;68197;41.864;21.942;2024-01-07T04:11:51;5.35;;;2.47;;
78848;SDS011;68197;41.864;21.942;2024-01-07T04:14:17;5.80;;;5.20;;
78848;SDS011;68197;41.864;21.942;2024-01-07T04:16:44;6.00;;;1.92;;
78848;SDS011;68197;41.864;21.942;2024-01-07T04:19:10;11.52;;;6.32;;
78848;SDS011;68197;41.864;21.942;2024-01-07T04:21:36;7.13;;;5.07;;
78848;SDS011;68197;41.864;21.942;2024-01-07T04:24:02;2.80;;;1.20;;
78848;SDS011;68197;41.864;21.942;2024-01-07T04:26:28;4.35;;;1.88;;
78848;SDS011;68197;41.864;21.942;2024-01-07T04:28:54;3.35;;;1.80;;
78848;SDS011;68197;41.864;21.942;2024-01-07T04:31:20;3.38;;;1.60;;
78848;SDS011;68197;41.864;21.942;2024-01-07T04:33:46;4.68;;;2.00;;
78848;SDS011;68197;41.864;21.942;2024-01-07T04:36:12;3.63;;;1.80;;
78848;SDS011;68197;41.864;21.942;2024-01-07T04:38:39;2.78;;;1.10;;
78848;SDS011;68197;41.864;21.942;2024-01-07T04:41:05;3.03;;;1.98;;
78848;SDS011;68197;41.864;21.942;2024-01-07T04:43:32;1.80;;;0.70;;
78848;SDS011;68197;41.864;21.942;2024-01-07T04:45:58;1.50;;;0.43;;
78848;SDS011;68197;41.864;21.942;2024-01-07T04:48:24;2.20;;;0.43;;
78848;SDS011;68197;41.864;21.942;2024-01-07T04:50:50;2.85;;;1.20;;
78848;SDS011;68197;41.864;21.942;2024-01-07T04:53:16;2.17;;;0.90;;
78848;SDS011;68197;41.864;21.942;2024-01-07T04:55:42;2.40;;;1.13;;
78848;SDS011;68197;41.864;21.942;2024-01-07T04:58:08;3.20;;;2.92;;
78848;SDS011;68197;41.864;21.942;2024-01-07T05:00:34;2.42;;;0.90;;
78848;SDS011;68197;41.864;21.942;2024-01-07T05:03:01;2.63;;;0.40;;
78848;SDS011;68197;41.864;21.942;2024-01-07T05:05:27;1.83;;;0.45;;
78848;SDS011;68197;41.864;21.942;2024-01-07T05:07:53;1.50;;;0.60;;
78848;SDS011;68197;41.864;21.942;2024-01-07T05:10:19;2.28;;;0.73;;
78848;SDS011;68197;41.864;21.942;2024-01-07T05:12:45;2.55;;;1.00;;
78848;SDS011;68197;41.864;21.942;2024-01-07T05:15:11;2.58;;;1.20;;
78848;SDS011;68197;41.864;21.942;2024-01-07T05:17:37;4.28;;;2.88;;
78848;SDS011;68197;41.864;21.942;2024-01-07T05:20:03;9.68;;;6.72;;
78848;SDS011;68197;41.864;21.942;2024-01-07T05:22:31;7.50;;;4.22;;
78848;SDS011;68197;41.864;21.942;2024-01-07T05:24:57;12.25;;;8.05;;
78848;SDS011;68197;41.864;21.942;2024-01-07T05:27:23;8.40;;;4.43;;
78848;SDS011;68197;41.864;21.942;2024-01-07T05:29:49;9.43;;;5.60;;
78848;SDS011;68197;41.864;21.942;2024-01-07T05:32:15;28.98;;;19.45;;
78848;SDS011;68197;41.864;21.942;2024-01-07T05:34:41;26.60;;;15.70;;
78848;SDS011;68197;41.864;21.942;2024-01-07T05:37:07;20.65;;;12.38;;
78848;SDS011;68197;41.864;21.942;2024-01-07T05:39:34;20.67;;;14.25;;
78848;SDS011;68197;41.864;21.942;2024-01-07T05:42:00;29.70;;;19.52;;
78848;SDS011;68197;41.864;21.942;2024-01-07T05:44:26;43.20;;;26.67;;
78848;SDS011;68197;41.864;21.942;2024-01-07T05:46:52;44.63;;;26.80;;
78848;SDS011;68197;41.864;21.942;2024-01-07T05:49:18;23.20;;;15.82;;
78848;SDS011;68197;41.864;21.942;2024-01-07T05:51:44;21.10;;;14.52;;
78848;SDS011;68197;41.864;21.942;2024-01-07T05:54:10;15.38;;;10.07;;
78848;SDS011;68197;41.864;21.942;2024-01-07T05:56:40;11.55;;;8.57;;
78848;SDS011;68197;41.864;21.942;2024-01-07T05:59:07;11.40;;;10.20;;
78848;SDS011;68197;41.864;21.942;2024-01-07T06:01:33;11.88;;;8.48;;
78848;SDS011;68197;41.864;21.942;2024-01-07T06:04:00;11.65;;;9.35;;
78848;SDS011;68197;41.864;21.942;2024-01-07T06:06:26;12.75;;;8.55;;
78848;SDS011;68197;41.864;21.942;2024-01-07T06:08:52;12.82;;;11.43;;
78848;SDS011;68197;41.864;21.942;2024-01-07T06:11:19;13.43;;;10.35;;
78848;SDS011;68197;41.864;21.942;2024-01-07T06:13:45;11.13;;;7.93;;
78848;SDS011;68197;41.864;21.942;2024-01-07T06:16:12;12.52;;;8.52;;
78848;SDS011;68197;41.864;21.942;2024-01-07T06:18:38;13.90;;;11.57;;
78848;SDS011;68197;41.864;21.942;2024-01-07T06:21:04;11.57;;;7.53;;
78848;SDS011;68197;41.864;21.942;2024-01-07T06:23:32;10.40;;;6.47;;
78848;SDS011;68197;41.864;21.942;2024-01-07T06:25:58;10.77;;;8.02;;
78848;SDS011;68197;41.864;21.942;2024-01-07T06:28:24;10.02;;;7.45;;
78848;SDS011;68197;41.864;21.942;2024-01-07T06:30:50;12.18;;;8.65;;
78848;SDS011;68197;41.864;21.942;2024-01-07T06:33:17;15.50;;;10.23;;
78848;SDS011;68197;41.864;21.942;2024-01-07T06:35:43;178.77;;;108.97;;
78848;SDS011;68197;41.864;21.942;2024-01-07T06:38:09;106.75;;;62.88;;
78848;SDS011;68197;41.864;21.942;2024-01-07T06:40:35;37.88;;;27.67;;
78848;SDS011;68197;41.864;21.942;2024-01-07T06:43:01;34.80;;;27.67;;
78848;SDS011;68197;41.864;21.942;2024-01-07T06:45:27;29.50;;;19.48;;
78848;SDS011;68197;41.864;21.942;2024-01-07T06:47:53;66.40;;;34.25;;
78848;SDS011;68197;41.864;21.942;2024-01-07T06:50:19;36.80;;;23.92;;
78848;SDS011;68197;41.864;21.942;2024-01-07T06:52:46;57.40;;;37.15;;
78848;SDS011;68197;41.864;21.942;2024-01-07T06:55:12;48.28;;;32.10;;
78848;SDS011;68197;41.864;21.942;2024-01-07T06:57:38;59.05;;;39.30;;
78848;SDS011;68197;41.864;21.942;2024-01-07T07:00:04;55.88;;;35.75;;
78848;SDS011;68197;41.864;21.942;2024-01-07T07:02:31;23.80;;;14.25;;
78848;SDS011;68197;41.864;21.942;2024-01-07T07:04:57;32.22;;;21.83;;
78848;SDS011;68197;41.864;21.942;2024-01-07T07:07:23;77.30;;;49.60;;
78848;SDS011;68197;41.864;21.942;2024-01-07T07:09:49;79.45;;;48.03;;
78848;SDS011;68197;41.864;21.942;2024-01-07T07:12:17;289.63;;;136.38;;
78848;SDS011;68197;41.864;21.942;2024-01-07T07:14:43;34.42;;;22.30;;
78848;SDS011;68197;41.864;21.942;2024-01-07T07:17:09;27.27;;;21.50;;
78848;SDS011;68197;41.864;21.942;2024-01-07T07:19:35;31.52;;;23.35;;
78848;SDS011;68197;41.864;21.942;2024-01-07T07:22:01;36.50;;;25.55;;
78848;SDS011;68197;41.864;21.942;2024-01-07T07:24:27;34.53;;;24.33;;
78848;SDS011;68197;41.864;21.942;2024-01-07T07:26:53;32.28;;;22.30;;
78848;SDS011;68197;41.864;21.942;2024-01-07T07:29:20;46.55;;;27.70;;
78848;SDS011;68197;41.864;21.942;2024-01-07T07:31:46;42.22;;;27.88;;
78848;SDS011;68197;41.864;21.942;2024-01-07T07:34:12;44.88;;;30.85;;
78848;SDS011;68197;41.864;21.942;2024-01-07T07:36:38;66.65;;;45.75;;
78848;SDS011;68197;41.864;21.942;2024-01-07T07:39:06;88.65;;;56.90;;
78848;SDS011;68197;41.864;21.942;2024-01-07T07:41:32;82.90;;;55.28;;
78848;SDS011;68197;41.864;21.942;2024-01-07T07:43:58;92.05;;;59.75;;
78848;SDS011;68197;41.864;21.942;2024-01-07T07:46:24;90.00;;;58.28;;
78848;SDS011;68197;41.864;21.942;2024-01-07T07:48:50;83.38;;;57.90;;
78848;SDS011;68197;41.864;21.942;2024-01-07T07:51:16;103.45;;;67.28;;
78848;SDS011;68197;41.864;21.942;2024-01-07T07:53:42;114.00;;;74.82;;
78848;SDS011;68197;41.864;21.942;2024-01-07T07:56:08;107.65;;;70.57;;
78848;SDS011;68197;41.864;21.942;2024-01-07T07:58:35;95.90;;;61.70;;
78848;SDS011;68197;41.864;21.942;2024-01-07T08:01:01;86.88;;;57.58;;
78848;SDS011;68197;41.864;21.942;2024-01-07T08:03:27;90.00;;;59.58;;
78848;SDS011;68197;41.864;21.942;2024-01-07T08:05:53;95.07;;;62.25;;
78848;SDS011;68197;41.864;21.942;2024-01-07T08:08:19;116.65;;;76.50;;
78848;SDS011;68197;41.864;21.942;2024-01-07T08:10:45;108.95;;;72.97;;
78848;SDS011;68197;41.864;21.942;2024-01-07T08:13:11;120.78;;;79.57;;
78848;SDS011;68197;41.864;21.942;2024-01-07T08:15:37;137.82;;;93.68;;
78848;SDS011;68197;41.864;21.942;2024-01-07T08:18:04;113.28;;;80.80;;
78848;SDS011;68197;41.864;21.942;2024-01-07T08:20:30;122.63;;;83.00;;
78848;SDS011;68197;41.864;21.942;2024-01-07T08:22:56;128.27;;;88.00;;
78848;SDS011;68197;41.864;21.942;2024-01-07T08:25:22;126.10;;;88.97;;
78848;SDS011;68197;41.864;21.942;2024-01-07T08:27:48;127.43;;;90.63;;
78848;SDS011;68197;41.864;21.942;2024-01-07T08:30:15;123.70;;;87.20;;
78848;SDS011;68197;41.864;21.942;2024-01-07T08:32:41;139.73;;;93.75;;
78848;SDS011;68197;41.864;21.942;2024-01-07T08:35:08;131.98;;;92.85;;
78848;SDS011;68197;41.864;21.942;2024-01-07T08:37:34;135.60;;;94.13;;
78848;SDS011;68197;41.864;21.942;2024-01-07T08:40:00;149.68;;;98.15;;
78848;SDS011;68197;41.864;21.942;2024-01-07T08:42:27;331.30;;;205.43;;
78848;SDS011;68197;41.864;21.942;2024-01-07T08:47:21;181.38;;;113.63;;
78848;SDS011;68197;41.864;21.942;2024-01-07T08:49:47;176.30;;;114.60;;
78848;SDS011;68197;41.864;21.942;2024-01-07T08:52:13;164.00;;;111.43;;
78848;SDS011;68197;41.864;21.942;2024-01-07T08:54:39;161.98;;;110.65;;
78848;SDS011;68197;41.864;21.942;2024-01-07T08:57:05;161.75;;;108.00;;
78848;SDS011;68197;41.864;21.942;2024-01-07T08:59:33;135.45;;;98.78;;
78848;SDS011;68197;41.864;21.942;2024-01-07T09:02:00;96.88;;;71.78;;
78848;SDS011;68197;41.864;21.942;2024-01-07T09:04:27;90.30;;;69.25;;
78848;SDS011;68197;41.864;21.942;2024-01-07T09:06:53;85.95;;;63.08;;
78848;SDS011;68197;41.864;21.942;2024-01-07T09:09:19;83.40;;;58.55;;
78848;SDS011;68197;41.864;21.942;2024-01-07T09:11:46;82.20;;;55.38;;
78848;SDS011;68197;41.864;21.942;2024-01-07T09:14:13;79.55;;;53.00;;
78848;SDS011;68197;41.864;21.942;2024-01-07T09:16:39;88.30;;;57.95;;
78848;SDS011;68197;41.864;21.942;2024-01-07T09:19:05;73.57;;;51.80;;
78848;SDS011;68197;41.864;21.942;2024-01-07T09:21:32;71.38;;;49.20;;
78848;SDS011;68197;41.864;21.942;2024-01-07T09:23:59;40.10;;;29.73;;
78848;SDS011;68197;41.864;21.942;2024-01-07T09:26:25;29.98;;;19.92;;
78848;SDS011;68197;41.864;21.942;2024-01-07T09:28:51;20.85;;;16.15;;
78848;SDS011;68197;41.864;21.942;2024-01-07T09:31:17;20.67;;;12.35;;
78848;SDS011;68197;41.864;21.942;2024-01-07T09:33:43;18.98;;;11.65;;
78848;SDS011;68197;41.864;21.942;2024-01-07T09:36:09;264.73;;;160.88;;
78848;SDS011;68197;41.864;21.942;2024-01-07T09:38:35;122.10;;;84.72;;
78848;SDS011;68197;41.864;21.942;2024-01-07T09:41:02;39.05;;;24.23;;
78848;SDS011;68197;41.864;21.942;2024-01-07T09:43:28;35.25;;;18.67;;
78848;SDS011;68197;41.864;21.942;2024-01-07T09:45:54;20.80;;;14.07;;
78848;SDS011;68197;41.864;21.942;2024-01-07T09:48:22;17.80;;;12.35;;
78848;SDS011;68197;41.864;21.942;2024-01-07T09:50:48;10.95;;;8.13;;
78848;SDS011;68197;41.864;21.942;2024-01-07T09:53:15;15.80;;;11.57;;
78848;SDS011;68197;41.864;21.942;2024-01-07T09:58:34;27.23;;;19.55;;
78848;SDS011;68197;41.864;21.942;2024-01-07T10:01:00;15.82;;;11.20;;
78848;SDS011;68197;41.864;21.942;2024-01-07T10:03:27;19.20;;;14.18;;
78848;SDS011;68197;41.864;21.942;2024-01-07T10:05:53;18.05;;;11.05;;
78848;SDS011;68197;41.864;21.942;2024-01-07T10:08:19;18.05;;;13.13;;
78848;SDS011;68197;41.864;21.942;2024-01-07T10:10:46;10.35;;;5.88;;
78848;SDS011;68197;41.864;21.942;2024-01-07T10:13:14;4.38;;;2.22;;
78848;SDS011;68197;41.864;21.942;2024-01-07T10:15:40;10.13;;;5.25;;
78848;SDS011;68197;41.864;21.942;2024-01-07T10:18:06;15.30;;;11.85;;
78848;SDS011;68197;41.864;21.942;2024-01-07T10:20:33;22.98;;;15.63;;
78848;SDS011;68197;41.864;21.942;2024-01-07T10:23:03;18.60;;;11.40;;
78848;SDS011;68197;41.864;21.942;2024-01-07T10:25:32;30.70;;;19.88;;
78848;SDS011;68197;41.864;21.942;2024-01-07T10:27:59;26.27;;;16.67;;
78848;SDS011;68197;41.864;21.942;2024-01-07T10:30:26;102.90;;;52.45;;
78848;SDS011;68197;41.864;21.942;2024-01-07T10:32:56;36.90;;;20.80;;
78848;SDS011;68197;41.864;21.942;2024-01-07T10:35:23;25.20;;;14.07;;
78848;SDS011;68197;41.864;21.942;2024-01-07T10:37:52;70.18;;;46.03;;
78848;SDS011;68197;41.864;21.942;2024-01-07T10:40:19;92.97;;;65.18;;
78848;SDS011;68197;41.864;21.942;2024-01-07T10:43:03;33.08;;;21.05;;
78848;SDS011;68197;41.864;21.942;2024-01-07T10:45:31;29.58;;;18.85;;
78848;SDS011;68197;41.864;21.942;2024-01-07T10:47:59;27.38;;;18.98;;
78848;SDS011;68197;41.864;21.942;2024-01-07T10:50:26;27.45;;;21.23;;
78848;SDS011;68197;41.864;21.942;2024-01-07T10:52:57;25.20;;;17.27;;
78848;SDS011;68197;41.864;21.942;2024-01-07T10:55:24;31.95;;;18.42;;
78848;SDS011;68197;41.864;21.942;2024-01-07T10:57:53;30.15;;;17.08;;
78848;SDS011;68197;41.864;21.942;2024-01-07T11:00:19;33.97;;;21.88;;
78848;SDS011;68197;41.864;21.942;2024-01-07T11:05:18;51.50;;;32.22;;
78848;SDS011;68197;41.864;21.942;2024-01-07T11:07:48;36.25;;;20.40;;
78848;SDS011;68197;41.864;21.942;2024-01-07T11:10:24;40.50;;;26.20;;
78848;SDS011;68197;41.864;21.942;2024-01-07T11:12:54;31.08;;;17.15;;
78848;SDS011;68197;41.864;21.942;2024-01-07T11:18:05;28.67;;;16.33;;
78848;SDS011;68197;41.864;21.942;2024-01-07T11:20:33;29.98;;;17.60;;
78848;SDS011;68197;41.864;21.942;2024-01-07T11:23:43;35.05;;;23.95;;
78848;SDS011;68197;41.864;21.942;2024-01-07T11:25:49;28.27;;;18.35;;
78848;SDS011;68197;41.864;21.942;2024-01-07T11:28:16;27.17;;;15.73;;
78848;SDS011;68197;41.864;21.942;2024-01-07T11:30:42;28.30;;;17.63;;
78848;SDS011;68197;41.864;21.942;2024-01-07T11:33:09;29.02;;;19.67;;
78848;SDS011;68197;41.864;21.942;2024-01-07T11:35:54;20.00;;;13.27;;
78848;SDS011;68197;41.864;21.942;2024-01-07T11:38:21;34.60;;;25.38;;
78848;SDS011;68197;41.864;21.942;2024-01-07T11:40:48;51.67;;;40.67;;
78848;SDS011;68197;41.864;21.942;2024-01-07T11:43:15;14.60;;;9.60;;
78848;SDS011;68197;41.864;21.942;2024-01-07T11:45:41;17.27;;;11.02;;
78848;SDS011;68197;41.864;21.942;2024-01-07T11:48:07;13.05;;;9.27;;
78848;SDS011;68197;41.864;21.942;2024-01-07T11:50:34;16.13;;;11.23;;
78848;SDS011;68197;41.864;21.942;2024-01-07T11:53:00;18.63;;;12.88;;
78848;SDS011;68197;41.864;21.942;2024-01-07T11:55:27;21.15;;;12.68;;
78848;SDS011;68197;41.864;21.942;2024-01-07T11:57:55;24.00;;;17.08;;
78848;SDS011;68197;41.864;21.942;2024-01-07T12:00:21;16.15;;;12.02;;
78848;SDS011;68197;41.864;21.942;2024-01-07T12:02:47;15.40;;;11.98;;
78848;SDS011;68197;41.864;21.942;2024-01-07T12:05:13;19.58;;;13.35;;
78848;SDS011;68197;41.864;21.942;2024-01-07T12:07:41;20.10;;;15.73;;
78848;SDS011;68197;41.864;21.942;2024-01-07T12:10:08;23.95;;;18.88;;
78848;SDS011;68197;41.864;21.942;2024-01-07T12:12:40;24.02;;;17.15;;
78848;SDS011;68197;41.864;21.942;2024-01-07T12:15:09;19.77;;;14.60;;
78848;SDS011;68197;41.864;21.942;2024-01-07T12:17:39;23.10;;;15.10;;
78848;SDS011;68197;41.864;21.942;2024-01-07T12:20:05;20.98;;;12.40;;
78848;SDS011;68197;41.864;21.942;2024-01-07T12:22:33;23.85;;;13.43;;
78848;SDS011;68197;41.864;21.942;2024-01-07T12:24:59;34.13;;;25.08;;
78848;SDS011;68197;41.864;21.942;2024-01-07T12:27:26;27.92;;;16.52;;
78848;SDS011;68197;41.864;21.942;2024-01-07T12:29:58;38.10;;;22.13;;
78848;SDS011;68197;41.864;21.942;2024-01-07T12:32:29;29.52;;;18.02;;
78848;SDS011;68197;41.864;21.942;2024-01-07T12:34:58;24.00;;;14.10;;
78848;SDS011;68197;41.864;21.942;2024-01-07T12:37:28;37.95;;;21.75;;
78848;SDS011;68197;41.864;21.942;2024-01-07T12:39:54;41.47;;;23.35;;
78848;SDS011;68197;41.864;21.942;2024-01-07T12:42:20;31.17;;;20.17;;
78848;SDS011;68197;41.864;21.942;2024-01-07T12:44:48;26.27;;;18.60;;
78848;SDS011;68197;41.864;21.942;2024-01-07T12:47:14;21.25;;;15.02;;
78848;SDS011;68197;41.864;21.942;2024-01-07T12:49:40;19.85;;;14.57;;
78848;SDS011;68197;41.864;21.942;2024-01-07T12:52:06;19.83;;;15.07;;
78848;SDS011;68197;41.864;21.942;2024-01-07T12:54:34;18.08;;;14.52;;
78848;SDS011;68197;41.864;21.942;2024-01-07T12:57:00;19.13;;;13.80;;
78848;SDS011;68197;41.864;21.942;2024-01-07T12:59:26;22.88;;;17.38;;
78848;SDS011;68197;41.864;21.942;2024-01-07T13:01:52;18.90;;;13.25;;
78848;SDS011;68197;41.864;21.942;2024-01-07T13:04:18;22.73;;;17.77;;
78848;SDS011;68197;41.864;21.942;2024-01-07T13:06:45;17.33;;;13.48;;
78848;SDS011;68197;41.864;21.942;2024-01-07T13:09:11;18.25;;;13.05;;
78848;SDS011;68197;41.864;21.942;2024-01-07T13:11:37;11.88;;;8.48;;
78848;SDS011;68197;41.864;21.942;2024-01-07T13:14:04;10.68;;;9.10;;
78848;SDS011;68197;41.864;21.942;2024-01-07T13:16:31;11.52;;;8.65;;
78848;SDS011;68197;41.864;21.942;2024-01-07T13:18:57;11.35;;;7.05;;
78848;SDS011;68197;41.864;21.942;2024-01-07T13:21:23;9.45;;;7.13;;
78848;SDS011;68197;41.864;21.942;2024-01-07T13:23:49;8.98;;;6.40;;
78848;SDS011;68197;41.864;21.942;2024-01-07T13:26:16;12.93;;;8.23;;
78848;SDS011;68197;41.864;21.942;2024-01-07T13:28:42;12.35;;;7.53;;
78848;SDS011;68197;41.864;21.942;2024-01-07T13:31:08;19.35;;;11.98;;
78848;SDS011;68197;41.864;21.942;2024-01-07T13:33:38;13.18;;;8.60;;
78848;SDS011;68197;41.864;21.942;2024-01-07T13:36:04;15.38;;;10.38;;
78848;SDS011;68197;41.864;21.942;2024-01-07T13:38:34;20.05;;;14.27;;
78848;SDS011;68197;41.864;21.942;2024-01-07T13:41:03;25.02;;;16.70;;
78848;SDS011;68197;41.864;21.942;2024-01-07T13:43:29;24.42;;;17.27;;
78848;SDS011;68197;41.864;21.942;2024-01-07T13:45:55;93.13;;;64.00;;
78848;SDS011;68197;41.864;21.942;2024-01-07T13:48:21;79.53;;;58.75;;
78848;SDS011;68197;41.864;21.942;2024-01-07T13:50:47;51.60;;;36.10;;
78848;SDS011;68197;41.864;21.942;2024-01-07T13:53:14;61.95;;;44.33;;
78848;SDS011;68197;41.864;21.942;2024-01-07T13:55:40;32.80;;;21.92;;
78848;SDS011;68197;41.864;21.942;2024-01-07T13:58:07;39.90;;;26.13;;
78848;SDS011;68197;41.864;21.942;2024-01-07T14:00:33;17.90;;;12.88;;
78848;SDS011;68197;41.864;21.942;2024-01-07T14:02:59;42.75;;;28.83;;
78848;SDS011;68197;41.864;21.942;2024-01-07T14:05:25;44.63;;;32.88;;
78848;SDS011;68197;41.864;21.942;2024-01-07T14:07:51;61.20;;;43.90;;
78848;SDS011;68197;41.864;21.942;2024-01-07T14:10:17;36.97;;;26.42;;
78848;SDS011;68197;41.864;21.942;2024-01-07T14:12:44;13.57;;;9.52;;
78848;SDS011;68197;41.864;21.942;2024-01-07T14:15:10;29.90;;;21.25;;
78848;SDS011;68197;41.864;21.942;2024-01-07T14:17:37;25.35;;;19.52;;
78848;SDS011;68197;41.864;21.942;2024-01-07T14:20:05;36.65;;;24.48;;
78848;SDS011;68197;41.864;21.942;2024-01-07T14:22:31;48.25;;;32.83;;
78848;SDS011;68197;41.864;21.942;2024-01-07T14:24:57;63.38;;;45.50;;